createdAt,value
2023-03-23T15:58:43.111Z,40.96
2023-03-23T16:01:39.307Z,41.08
2023-03-23T16:04:09.802Z,41.32
2023-03-23T16:06:37.598Z,39.69
2023-03-23T16:09:06.814Z,40.67
2023-03-23T16:11:34.504Z,40.33
2023-03-23T16:14:02.640Z,39.34
2023-03-23T16:16:36.961Z,40.19
2023-03-23T16:19:05.465Z,40.64
2023-03-23T16:21:32.995Z,40.65
2023-03-23T16:24:00.609Z,40.78
2023-03-23T16:26:28.371Z,41.23
2023-03-23T16:29:06.068Z,41.74
2023-03-23T16:31:40.404Z,40.54
2023-03-23T16:34:08.817Z,40.83
2023-03-23T16:36:36.572Z,41.04
2023-03-23T16:39:04.447Z,40.89
2023-03-23T16:41:32.092Z,41.29
2023-03-23T16:43:59.570Z,42.17
2023-03-23T16:46:27.051Z,42.73
2023-03-23T16:48:54.771Z,42.07
2023-03-23T16:51:22.268Z,43.41
2023-03-23T16:53:49.814Z,42.61
2023-03-23T16:56:17.366Z,40.61
2023-03-23T16:58:44.929Z,40.80
2023-03-23T17:01:13.631Z,41.61
2023-03-23T17:03:43.801Z,41.77
2023-03-23T17:06:11.618Z,41.81
2023-03-23T17:08:39.080Z,41.41
2023-03-23T17:11:06.919Z,40.94
2023-03-23T17:13:34.631Z,41.47
2023-03-23T17:16:02.064Z,42.09
2023-03-23T17:18:29.611Z,42.30
2023-03-23T17:20:57.313Z,42.37
2023-03-23T17:23:25.016Z,42.91
2023-03-23T17:25:53.573Z,42.45
2023-03-23T17:28:21.212Z,42.73
2023-03-23T17:30:49.056Z,42.94
2023-03-23T17:33:16.457Z,43.70
2023-03-23T17:35:46.908Z,44.07
2023-03-23T17:38:14.723Z,43.90
2023-03-23T17:40:42.124Z,45.30
2023-03-23T17:43:09.597Z,44.47
2023-03-23T17:45:37.606Z,44.83
2023-03-23T17:48:07.823Z,44.36
2023-03-23T17:50:36.078Z,44.79
2023-03-23T17:53:03.825Z,45.54
2023-03-23T17:55:31.282Z,45.19
2023-03-23T17:57:58.695Z,45.95
2023-03-23T18:00:26.342Z,46.42
2023-03-23T18:02:53.850Z,46.97
2023-03-23T18:05:21.461Z,46.35
2023-03-23T18:07:48.971Z,47.01
2023-03-23T18:10:16.528Z,48.80
2023-03-23T18:12:48.738Z,48.51
2023-03-23T18:15:16.394Z,49.05
2023-03-23T18:17:48.119Z,49.49
2023-03-23T18:20:16.585Z,48.21
2023-03-23T18:22:43.977Z,50.04
2023-03-23T18:25:11.458Z,50.73
2023-03-23T18:27:39.229Z,51.72
2023-03-23T18:30:09.234Z,49.82
2023-03-23T18:32:40.702Z,49.80
2023-03-23T18:35:10.976Z,51.21
2023-03-23T18:37:41.629Z,51.87
2023-03-23T18:40:14.378Z,50.70
2023-03-23T18:42:42.370Z,51.79
2023-03-23T18:45:09.895Z,54.08
2023-03-23T18:47:38.611Z,53.58
2023-03-23T18:50:10.593Z,54.09
2023-03-23T18:52:38.294Z,56.74
2023-03-23T18:55:06.403Z,56.37
2023-03-23T18:57:34.123Z,54.62
2023-03-23T19:00:01.595Z,52.48
2023-03-23T19:02:29.234Z,52.83
2023-03-23T19:04:57.106Z,53.17
2023-03-23T19:07:24.626Z,59.11
2023-03-23T19:09:51.979Z,59.27
2023-03-23T19:12:19.421Z,57.77
2023-03-23T19:14:46.723Z,55.17
2023-03-23T19:17:14.194Z,55.52
2023-03-23T19:19:43.150Z,55.99
2023-03-23T19:22:12.442Z,56.52
2023-03-23T19:24:39.909Z,55.42
2023-03-23T19:27:08.059Z,55.44
2023-03-23T19:29:35.866Z,54.98
2023-03-23T19:32:03.344Z,54.16
2023-03-23T19:34:31.956Z,54.71
2023-03-23T19:37:05.404Z,55.34
2023-03-23T19:39:34.743Z,55.22
2023-03-23T19:42:04.346Z,54.27
2023-03-23T19:44:32.928Z,54.25
2023-03-23T19:47:00.728Z,54.49
2023-03-23T19:49:28.826Z,54.07
2023-03-23T19:52:06.455Z,54.46
2023-03-23T19:54:41.496Z,54.80
2023-03-23T19:57:30.534Z,54.78
2023-03-23T20:00:09.036Z,55.30
2023-03-23T20:02:40.842Z,54.70
2023-03-23T20:05:09.308Z,54.85
2023-03-23T20:07:42.794Z,54.04
2023-03-23T20:10:16.471Z,54.63
2023-03-23T20:12:54.529Z,54.42
2023-03-23T20:15:35.637Z,56.48
2023-03-23T20:18:14.675Z,57.21
2023-03-23T20:20:52.624Z,55.99
2023-03-23T20:23:20.604Z,56.62
2023-03-23T20:25:50.207Z,57.10
2023-03-23T20:28:18.347Z,58.13
2023-03-23T20:31:19.754Z,57.67
2023-03-23T20:33:39.891Z,56.62
2023-03-23T20:36:11.314Z,57.30
2023-03-23T20:38:41.860Z,57.33
2023-03-23T20:41:12.385Z,58.18
2023-03-23T20:43:43.331Z,59.37
2023-03-23T20:46:23.576Z,58.75
2023-03-23T20:51:41.372Z,61.49
2023-03-23T20:54:10.243Z,61.98
2023-03-23T20:56:42.491Z,62.81
2023-03-23T20:59:11.109Z,63.17
2023-03-23T21:01:53.955Z,65.11
2023-03-23T21:05:26.949Z,64.60
2023-03-23T21:16:45.086Z,60.46
2023-03-23T21:19:49.448Z,60.67
2023-03-23T21:22:48.963Z,60.32
2023-03-23T21:26:14.020Z,61.01
2023-03-23T21:28:42.981Z,61.32
2023-03-23T21:31:40.228Z,59.37
2023-03-23T21:34:19.619Z,60.16
2023-03-23T21:37:26.832Z,58.55
2023-03-23T21:40:32.816Z,60.08
2023-03-23T21:43:27.639Z,61.09
2023-03-23T21:46:22.562Z,61.79
2023-03-23T21:49:22.917Z,63.29
2023-03-23T21:52:18.589Z,61.86
2023-03-23T21:54:51.915Z,62.23
2023-03-23T21:58:09.826Z,62.13
2023-03-23T22:01:25.733Z,63.02
2023-03-23T22:04:14.159Z,63.57
2023-03-23T22:07:55.668Z,64.62
2023-03-23T22:11:03.905Z,64.27
2023-03-23T22:13:36.389Z,63.95
2023-03-23T22:16:10.956Z,64.77
2023-03-23T22:19:00.010Z,64.21
2023-03-23T22:21:50.501Z,67.08
2023-03-23T22:24:21.144Z,66.76
2023-03-23T22:26:48.741Z,69.95
2023-03-23T22:29:17.286Z,70.30
2023-03-23T22:31:45.471Z,68.25
2023-03-23T22:34:13.500Z,68.09
2023-03-23T22:36:41.524Z,69.12
2023-03-23T22:39:12.720Z,68.49
2023-03-23T22:41:42.007Z,67.70
2023-03-23T22:44:18.898Z,68.80
2023-03-23T22:46:51.385Z,68.60
2023-03-23T22:49:19.477Z,70.09
2023-03-23T22:51:47.188Z,71.78
2023-03-23T22:54:14.776Z,71.48
2023-03-23T22:56:43.123Z,72.48
2023-03-23T22:59:11.144Z,72.54
2023-03-23T23:01:38.831Z,72.93
2023-03-23T23:04:07.221Z,74.60
2023-03-23T23:06:36.602Z,73.67
2023-03-23T23:09:04.726Z,74.11
2023-03-23T23:11:32.601Z,72.83
2023-03-23T23:14:00.144Z,73.58
2023-03-23T23:16:27.984Z,72.38
2023-03-23T23:18:57.636Z,73.09
2023-03-23T23:21:29.055Z,76.55
2023-03-23T23:23:57.296Z,75.18
2023-03-23T23:26:24.845Z,77.76
2023-03-23T23:28:52.830Z,78.82
2023-03-23T23:31:26.761Z,77.11
2023-03-23T23:33:56.336Z,76.18
2023-03-23T23:36:28.207Z,77.58
2023-03-23T23:38:57.226Z,80.21
2023-03-23T23:41:25.064Z,78.70
2023-03-23T23:43:52.618Z,77.30
2023-03-23T23:46:20.453Z,78.89
2023-03-23T23:48:48.192Z,79.40
2023-03-23T23:51:16.649Z,80.87
2023-03-23T23:53:46.359Z,80.96
2023-03-23T23:56:14.534Z,82.12
2023-03-23T23:58:42.032Z,82.26
